sensor_id;sensor_type;location;lat;lon;timestamp;temperature;humidity
27114;DHT22;14648;49.730;8.614;2023-07-09T00:00:16;23.00;53.60
27114;DHT22;14648;49.730;8.614;2023-07-09T00:02:44;23.00;53.60
27114;DHT22;14648;49.730;8.614;2023-07-09T00:05:15;22.90;53.70
27114;DHT22;14648;49.730;8.614;2023-07-09T00:07:43;22.90;53.70
27114;DHT22;14648;49.730;8.614;2023-07-09T00:10:18;22.90;53.80
27114;DHT22;14648;49.730;8.614;2023-07-09T00:12:46;22.90;53.80
27114;DHT22;14648;49.730;8.614;2023-07-09T00:15:13;22.90;53.70
27114;DHT22;14648;49.730;8.614;2023-07-09T00:17:42;22.80;53.50
27114;DHT22;14648;49.730;8.614;2023-07-09T00:20:16;22.80;53.50
27114;DHT22;14648;49.730;8.614;2023-07-09T00:22:43;22.80;53.70
27114;DHT22;14648;49.730;8.614;2023-07-09T00:25:21;22.70;53.10
27114;DHT22;14648;49.730;8.614;2023-07-09T00:27:47;22.70;53.00
27114;DHT22;14648;49.730;8.614;2023-07-09T00:30:20;22.60;53.00
27114;DHT22;14648;49.730;8.614;2023-07-09T00:32:50;22.60;53.00
27114;DHT22;14648;49.730;8.614;2023-07-09T00:35:18;22.60;53.10
27114;DHT22;14648;49.730;8.614;2023-07-09T00:37:44;22.60;53.20
27114;DHT22;14648;49.730;8.614;2023-07-09T00:40:17;22.60;53.20
27114;DHT22;14648;49.730;8.614;2023-07-09T00:42:46;22.60;53.20
27114;DHT22;14648;49.730;8.614;2023-07-09T00:45:24;22.50;53.10
27114;DHT22;14648;49.730;8.614;2023-07-09T00:47:55;22.50;53.40
27114;DHT22;14648;49.730;8.614;2023-07-09T00:50:52;22.50;53.60
27114;DHT22;14648;49.730;8.614;2023-07-09T00:53:29;22.40;53.60
27114;DHT22;14648;49.730;8.614;2023-07-09T00:56:04;22.40;53.80
27114;DHT22;14648;49.730;8.614;2023-07-09T00:58:35;22.40;53.80
27114;DHT22;14648;49.730;8.614;2023-07-09T01:01:04;22.40;53.80
27114;DHT22;14648;49.730;8.614;2023-07-09T01:03:38;22.40;54.00
27114;DHT22;14648;49.730;8.614;2023-07-09T01:06:10;22.40;54.20
27114;DHT22;14648;49.730;8.614;2023-07-09T01:08:38;22.40;54.30
27114;DHT22;14648;49.730;8.614;2023-07-09T01:11:18;22.30;54.40
27114;DHT22;14648;49.730;8.614;2023-07-09T01:13:49;22.30;54.60
27114;DHT22;14648;49.730;8.614;2023-07-09T01:16:22;22.40;54.60
27114;DHT22;14648;49.730;8.614;2023-07-09T01:18:51;22.30;54.80
27114;DHT22;14648;49.730;8.614;2023-07-09T01:21:17;22.30;54.70
27114;DHT22;14648;49.730;8.614;2023-07-09T01:23:44;22.30;54.90
27114;DHT22;14648;49.730;8.614;2023-07-09T01:26:13;22.30;55.10
27114;DHT22;14648;49.730;8.614;2023-07-09T01:28:40;22.20;55.00
27114;DHT22;14648;49.730;8.614;2023-07-09T01:31:13;22.20;55.00
27114;DHT22;14648;49.730;8.614;2023-07-09T01:33:41;22.20;55.20
27114;DHT22;14648;49.730;8.614;2023-07-09T01:36:14;22.10;55.20
27114;DHT22;14648;49.730;8.614;2023-07-09T01:38:43;22.10;55.30
27114;DHT22;14648;49.730;8.614;2023-07-09T01:41:10;22.10;55.40
27114;DHT22;14648;49.730;8.614;2023-07-09T01:43:39;22.00;55.40
27114;DHT22;14648;49.730;8.614;2023-07-09T01:46:10;22.00;55.50
27114;DHT22;14648;49.730;8.614;2023-07-09T01:48:38;22.00;55.60
27114;DHT22;14648;49.730;8.614;2023-07-09T01:51:14;22.00;55.60
27114;DHT22;14648;49.730;8.614;2023-07-09T01:53:42;22.00;55.80
27114;DHT22;14648;49.730;8.614;2023-07-09T01:56:09;21.90;55.80
27114;DHT22;14648;49.730;8.614;2023-07-09T01:58:36;21.90;55.80
27114;DHT22;14648;49.730;8.614;2023-07-09T02:01:07;21.90;55.80
27114;DHT22;14648;49.730;8.614;2023-07-09T02:03:34;21.90;55.90
27114;DHT22;14648;49.730;8.614;2023-07-09T02:06:00;21.90;55.90
27114;DHT22;14648;49.730;8.614;2023-07-09T02:08:28;21.90;56.00
27114;DHT22;14648;49.730;8.614;2023-07-09T02:10:53;21.80;56.00
27114;DHT22;14648;49.730;8.614;2023-07-09T02:13:19;21.90;56.10
27114;DHT22;14648;49.730;8.614;2023-07-09T02:15:45;21.80;56.10
27114;DHT22;14648;49.730;8.614;2023-07-09T02:18:11;21.80;56.20
27114;DHT22;14648;49.730;8.614;2023-07-09T02:20:37;21.80;56.20
27114;DHT22;14648;49.730;8.614;2023-07-09T02:23:03;21.80;56.30
27114;DHT22;14648;49.730;8.614;2023-07-09T02:25:30;21.70;56.30
27114;DHT22;14648;49.730;8.614;2023-07-09T02:27:55;21.70;56.40
27114;DHT22;14648;49.730;8.614;2023-07-09T02:30:21;21.70;56.50
27114;DHT22;14648;49.730;8.614;2023-07-09T02:32:47;21.70;56.50
27114;DHT22;14648;49.730;8.614;2023-07-09T02:35:12;21.60;56.50
27114;DHT22;14648;49.730;8.614;2023-07-09T02:37:38;21.60;56.60
27114;DHT22;14648;49.730;8.614;2023-07-09T02:40:05;21.60;56.60
27114;DHT22;14648;49.730;8.614;2023-07-09T02:42:33;21.60;56.80
27114;DHT22;14648;49.730;8.614;2023-07-09T02:44:58;21.60;56.80
27114;DHT22;14648;49.730;8.614;2023-07-09T02:47:24;21.50;57.00
27114;DHT22;14648;49.730;8.614;2023-07-09T02:49:50;21.60;56.90
27114;DHT22;14648;49.730;8.614;2023-07-09T02:52:16;21.50;57.00
27114;DHT22;14648;49.730;8.614;2023-07-09T02:54:41;21.50;57.10
27114;DHT22;14648;49.730;8.614;2023-07-09T02:57:07;21.50;57.20
27114;DHT22;14648;49.730;8.614;2023-07-09T02:59:33;21.50;57.30
27114;DHT22;14648;49.730;8.614;2023-07-09T03:01:59;21.50;57.30
27114;DHT22;14648;49.730;8.614;2023-07-09T03:04:25;21.40;57.40
27114;DHT22;14648;49.730;8.614;2023-07-09T03:06:52;21.40;57.40
27114;DHT22;14648;49.730;8.614;2023-07-09T03:09:18;21.40;57.50
27114;DHT22;14648;49.730;8.614;2023-07-09T03:11:44;21.40;57.60
27114;DHT22;14648;49.730;8.614;2023-07-09T03:14:10;21.40;57.60
27114;DHT22;14648;49.730;8.614;2023-07-09T03:16:36;21.40;57.70
27114;DHT22;14648;49.730;8.614;2023-07-09T03:19:03;21.40;57.70
27114;DHT22;14648;49.730;8.614;2023-07-09T03:21:30;21.40;57.80
27114;DHT22;14648;49.730;8.614;2023-07-09T03:23:56;21.40;57.90
27114;DHT22;14648;49.730;8.614;2023-07-09T03:26:22;21.30;58.00
27114;DHT22;14648;49.730;8.614;2023-07-09T03:28:48;21.30;58.10
27114;DHT22;14648;49.730;8.614;2023-07-09T03:31:14;21.30;58.10
27114;DHT22;14648;49.730;8.614;2023-07-09T03:33:40;21.30;58.20
27114;DHT22;14648;49.730;8.614;2023-07-09T03:36:06;21.30;58.30
27114;DHT22;14648;49.730;8.614;2023-07-09T03:38:32;21.30;58.40
27114;DHT22;14648;49.730;8.614;2023-07-09T03:40:58;21.20;58.30
27114;DHT22;14648;49.730;8.614;2023-07-09T03:43:24;21.20;58.40
27114;DHT22;14648;49.730;8.614;2023-07-09T03:45:50;21.20;58.50
27114;DHT22;14648;49.730;8.614;2023-07-09T03:48:18;21.20;58.40
27114;DHT22;14648;49.730;8.614;2023-07-09T03:50:46;21.20;59.20
27114;DHT22;14648;49.730;8.614;2023-07-09T03:53:13;21.10;58.60
27114;DHT22;14648;49.730;8.614;2023-07-09T03:55:39;21.10;58.60
27114;DHT22;14648;49.730;8.614;2023-07-09T03:58:05;21.10;58.60
27114;DHT22;14648;49.730;8.614;2023-07-09T04:00:31;21.10;58.60
27114;DHT22;14648;49.730;8.614;2023-07-09T04:02:57;21.10;58.70
27114;DHT22;14648;49.730;8.614;2023-07-09T04:05:24;21.00;58.60
27114;DHT22;14648;49.730;8.614;2023-07-09T04:07:50;21.00;58.70
27114;DHT22;14648;49.730;8.614;2023-07-09T04:10:16;21.00;58.70
27114;DHT22;14648;49.730;8.614;2023-07-09T04:12:42;21.00;58.70
27114;DHT22;14648;49.730;8.614;2023-07-09T04:15:08;21.00;58.70
27114;DHT22;14648;49.730;8.614;2023-07-09T04:17:35;21.00;58.90
27114;DHT22;14648;49.730;8.614;2023-07-09T04:20:01;21.00;58.90
27114;DHT22;14648;49.730;8.614;2023-07-09T04:22:31;21.00;59.00
27114;DHT22;14648;49.730;8.614;2023-07-09T04:24:57;21.00;59.00
27114;DHT22;14648;49.730;8.614;2023-07-09T04:27:26;21.00;59.00
27114;DHT22;14648;49.730;8.614;2023-07-09T04:29:53;21.00;59.10
27114;DHT22;14648;49.730;8.614;2023-07-09T04:32:19;21.00;59.10
27114;DHT22;14648;49.730;8.614;2023-07-09T04:34:45;21.00;59.10
27114;DHT22;14648;49.730;8.614;2023-07-09T04:37:12;21.00;59.20
27114;DHT22;14648;49.730;8.614;2023-07-09T04:39:39;21.00;59.30
27114;DHT22;14648;49.730;8.614;2023-07-09T04:42:06;21.00;59.40
27114;DHT22;14648;49.730;8.614;2023-07-09T04:44:36;21.00;59.40
27114;DHT22;14648;49.730;8.614;2023-07-09T04:47:02;21.00;59.40
27114;DHT22;14648;49.730;8.614;2023-07-09T04:49:27;21.00;59.40
27114;DHT22;14648;49.730;8.614;2023-07-09T04:51:53;21.00;59.60
27114;DHT22;14648;49.730;8.614;2023-07-09T04:54:22;21.00;59.60
27114;DHT22;14648;49.730;8.614;2023-07-09T04:56:49;21.00;59.70
27114;DHT22;14648;49.730;8.614;2023-07-09T04:59:14;21.00;59.70
27114;DHT22;14648;49.730;8.614;2023-07-09T05:01:40;21.00;59.80
27114;DHT22;14648;49.730;8.614;2023-07-09T05:04:06;21.00;59.80
27114;DHT22;14648;49.730;8.614;2023-07-09T05:06:33;21.00;60.00
27114;DHT22;14648;49.730;8.614;2023-07-09T05:08:59;21.00;60.00
27114;DHT22;14648;49.730;8.614;2023-07-09T05:11:25;21.00;60.10
27114;DHT22;14648;49.730;8.614;2023-07-09T05:13:50;21.00;60.00
27114;DHT22;14648;49.730;8.614;2023-07-09T05:16:16;21.00;60.10
27114;DHT22;14648;49.730;8.614;2023-07-09T05:18:42;21.10;60.30
27114;DHT22;14648;49.730;8.614;2023-07-09T05:21:09;21.10;60.10
27114;DHT22;14648;49.730;8.614;2023-07-09T05:23:35;21.10;60.20
27114;DHT22;14648;49.730;8.614;2023-07-09T05:26:03;21.10;60.10
27114;DHT22;14648;49.730;8.614;2023-07-09T05:28:29;21.20;60.20
27114;DHT22;14648;49.730;8.614;2023-07-09T05:30:55;21.20;60.40
27114;DHT22;14648;49.730;8.614;2023-07-09T05:33:21;21.20;60.50
27114;DHT22;14648;49.730;8.614;2023-07-09T05:35:47;21.30;60.60
27114;DHT22;14648;49.730;8.614;2023-07-09T05:38:14;21.30;60.40
27114;DHT22;14648;49.730;8.614;2023-07-09T05:40:41;21.30;60.40
27114;DHT22;14648;49.730;8.614;2023-07-09T05:43:08;21.40;60.50
27114;DHT22;14648;49.730;8.614;2023-07-09T05:45:34;21.50;60.50
27114;DHT22;14648;49.730;8.614;2023-07-09T05:48:00;21.50;60.40
27114;DHT22;14648;49.730;8.614;2023-07-09T05:50:28;21.50;60.40
27114;DHT22;14648;49.730;8.614;2023-07-09T05:52:54;21.60;60.00
27114;DHT22;14648;49.730;8.614;2023-07-09T05:55:20;21.60;59.90
27114;DHT22;14648;49.730;8.614;2023-07-09T05:57:46;21.70;59.90
27114;DHT22;14648;49.730;8.614;2023-07-09T06:00:12;21.80;59.80
27114;DHT22;14648;49.730;8.614;2023-07-09T06:02:38;21.80;59.80
27114;DHT22;14648;49.730;8.614;2023-07-09T06:05:05;21.80;60.10
27114;DHT22;14648;49.730;8.614;2023-07-09T06:07:34;21.90;59.60
27114;DHT22;14648;49.730;8.614;2023-07-09T06:10:00;21.90;59.40
27114;DHT22;14648;49.730;8.614;2023-07-09T06:12:26;22.00;59.20
27114;DHT22;14648;49.730;8.614;2023-07-09T06:14:52;22.00;59.00
27114;DHT22;14648;49.730;8.614;2023-07-09T06:17:17;22.10;58.90
27114;DHT22;14648;49.730;8.614;2023-07-09T06:19:43;22.20;58.80
27114;DHT22;14648;49.730;8.614;2023-07-09T06:22:09;22.20;58.80
27114;DHT22;14648;49.730;8.614;2023-07-09T06:24:34;22.30;58.80
27114;DHT22;14648;49.730;8.614;2023-07-09T06:27:00;22.40;58.70
27114;DHT22;14648;49.730;8.614;2023-07-09T06:29:26;22.40;58.60
27114;DHT22;14648;49.730;8.614;2023-07-09T06:31:52;22.50;58.50
27114;DHT22;14648;49.730;8.614;2023-07-09T06:34:17;22.60;58.50
27114;DHT22;14648;49.730;8.614;2023-07-09T06:36:43;22.70;58.50
27114;DHT22;14648;49.730;8.614;2023-07-09T06:39:09;22.70;58.80
27114;DHT22;14648;49.730;8.614;2023-07-09T06:41:35;22.70;58.50
27114;DHT22;14648;49.730;8.614;2023-07-09T06:44:08;22.90;58.40
27114;DHT22;14648;49.730;8.614;2023-07-09T06:46:34;23.00;58.30
27114;DHT22;14648;49.730;8.614;2023-07-09T06:49:00;23.00;58.30
27114;DHT22;14648;49.730;8.614;2023-07-09T06:51:26;23.10;58.30
27114;DHT22;14648;49.730;8.614;2023-07-09T06:53:52;23.30;58.10
27114;DHT22;14648;49.730;8.614;2023-07-09T06:56:18;23.40;57.90
27114;DHT22;14648;49.730;8.614;2023-07-09T06:58:44;23.50;58.00
27114;DHT22;14648;49.730;8.614;2023-07-09T07:01:12;23.60;57.90
27114;DHT22;14648;49.730;8.614;2023-07-09T07:03:38;23.70;58.20
27114;DHT22;14648;49.730;8.614;2023-07-09T07:06:07;23.80;57.70
27114;DHT22;14648;49.730;8.614;2023-07-09T07:08:34;24.00;57.40
27114;DHT22;14648;49.730;8.614;2023-07-09T07:11:02;24.00;57.30
27114;DHT22;14648;49.730;8.614;2023-07-09T07:13:38;24.10;57.00
27114;DHT22;14648;49.730;8.614;2023-07-09T07:16:07;24.30;56.60
27114;DHT22;14648;49.730;8.614;2023-07-09T07:18:35;24.40;56.30
27114;DHT22;14648;49.730;8.614;2023-07-09T07:21:01;24.50;56.30
27114;DHT22;14648;49.730;8.614;2023-07-09T07:23:27;24.60;56.60
27114;DHT22;14648;49.730;8.614;2023-07-09T07:25:54;24.60;56.20
27114;DHT22;14648;49.730;8.614;2023-07-09T07:28:20;24.70;56.30
27114;DHT22;14648;49.730;8.614;2023-07-09T07:30:46;24.80;56.50
27114;DHT22;14648;49.730;8.614;2023-07-09T07:33:14;24.90;57.00
27114;DHT22;14648;49.730;8.614;2023-07-09T07:35:41;25.00;56.90
27114;DHT22;14648;49.730;8.614;2023-07-09T07:38:07;25.10;56.50
27114;DHT22;14648;49.730;8.614;2023-07-09T07:40:33;25.30;55.90
27114;DHT22;14648;49.730;8.614;2023-07-09T07:42:58;25.40;55.40
27114;DHT22;14648;49.730;8.614;2023-07-09T07:45:24;25.50;54.60
27114;DHT22;14648;49.730;8.614;2023-07-09T07:47:50;25.60;54.80
27114;DHT22;14648;49.730;8.614;2023-07-09T07:50:17;25.80;54.90
27114;DHT22;14648;49.730;8.614;2023-07-09T07:52:43;25.90;53.90
27114;DHT22;14648;49.730;8.614;2023-07-09T07:55:09;26.00;54.30
27114;DHT22;14648;49.730;8.614;2023-07-09T07:57:35;26.10;54.10
27114;DHT22;14648;49.730;8.614;2023-07-09T08:00:01;26.20;52.80
27114;DHT22;14648;49.730;8.614;2023-07-09T08:02:28;26.40;52.60
27114;DHT22;14648;49.730;8.614;2023-07-09T08:04:54;26.50;52.20
27114;DHT22;14648;49.730;8.614;2023-07-09T08:07:20;26.70;52.00
27114;DHT22;14648;49.730;8.614;2023-07-09T08:09:46;26.80;51.60
27114;DHT22;14648;49.730;8.614;2023-07-09T08:12:13;26.90;51.10
27114;DHT22;14648;49.730;8.614;2023-07-09T08:14:45;27.00;51.70
27114;DHT22;14648;49.730;8.614;2023-07-09T08:17:11;27.10;51.20
27114;DHT22;14648;49.730;8.614;2023-07-09T08:19:48;27.20;51.00
27114;DHT22;14648;49.730;8.614;2023-07-09T08:22:16;27.40;49.90
27114;DHT22;14648;49.730;8.614;2023-07-09T08:24:42;27.40;49.70
27114;DHT22;14648;49.730;8.614;2023-07-09T08:27:09;27.50;49.40
27114;DHT22;14648;49.730;8.614;2023-07-09T08:29:35;27.60;49.30
27114;DHT22;14648;49.730;8.614;2023-07-09T08:32:02;27.70;48.90
27114;DHT22;14648;49.730;8.614;2023-07-09T08:34:28;27.90;48.90
27114;DHT22;14648;49.730;8.614;2023-07-09T08:36:53;28.00;48.70
27114;DHT22;14648;49.730;8.614;2023-07-09T08:39:19;28.10;48.20
27114;DHT22;14648;49.730;8.614;2023-07-09T08:41:48;28.30;48.60
27114;DHT22;14648;49.730;8.614;2023-07-09T08:44:39;28.40;48.10
27114;DHT22;14648;49.730;8.614;2023-07-09T08:47:58;28.50;48.20
27114;DHT22;14648;49.730;8.614;2023-07-09T08:50:43;28.80;47.20
27114;DHT22;14648;49.730;8.614;2023-07-09T08:53:21;28.90;48.00
27114;DHT22;14648;49.730;8.614;2023-07-09T08:55:54;29.00;47.50
27114;DHT22;14648;49.730;8.614;2023-07-09T08:58:27;29.10;47.80
27114;DHT22;14648;49.730;8.614;2023-07-09T09:01:01;29.20;46.10
27114;DHT22;14648;49.730;8.614;2023-07-09T09:06:16;29.50;45.40
27114;DHT22;14648;49.730;8.614;2023-07-09T09:09:12;29.60;44.60
27114;DHT22;14648;49.730;8.614;2023-07-09T09:11:59;29.70;45.20
27114;DHT22;14648;49.730;8.614;2023-07-09T09:14:57;29.80;44.90
27114;DHT22;14648;49.730;8.614;2023-07-09T09:17:25;29.90;45.10
27114;DHT22;14648;49.730;8.614;2023-07-09T09:19:56;30.00;46.10
27114;DHT22;14648;49.730;8.614;2023-07-09T09:22:29;30.10;45.70
27114;DHT22;14648;49.730;8.614;2023-07-09T09:25:18;30.30;46.20
27114;DHT22;14648;49.730;8.614;2023-07-09T09:27:48;30.40;45.20
27114;DHT22;14648;49.730;8.614;2023-07-09T09:30:17;30.50;45.00
27114;DHT22;14648;49.730;8.614;2023-07-09T09:32:50;30.60;44.60
27114;DHT22;14648;49.730;8.614;2023-07-09T09:35:20;30.80;44.00
27114;DHT22;14648;49.730;8.614;2023-07-09T09:37:54;30.90;43.90
27114;DHT22;14648;49.730;8.614;2023-07-09T09:40:21;30.90;43.80
27114;DHT22;14648;49.730;8.614;2023-07-09T09:42:50;31.00;44.30
27114;DHT22;14648;49.730;8.614;2023-07-09T09:45:18;31.10;43.60
27114;DHT22;14648;49.730;8.614;2023-07-09T09:47:48;31.20;44.60
27114;DHT22;14648;49.730;8.614;2023-07-09T09:50:19;31.30;44.50
27114;DHT22;14648;49.730;8.614;2023-07-09T09:52:46;31.50;43.50
27114;DHT22;14648;49.730;8.614;2023-07-09T09:55:26;31.50;42.10
27114;DHT22;14648;49.730;8.614;2023-07-09T09:57:54;31.70;42.10
27114;DHT22;14648;49.730;8.614;2023-07-09T10:00:26;31.80;40.90
27114;DHT22;14648;49.730;8.614;2023-07-09T10:03:04;31.90;41.20
27114;DHT22;14648;49.730;8.614;2023-07-09T10:05:44;32.00;41.40
27114;DHT22;14648;49.730;8.614;2023-07-09T10:08:36;32.10;40.90
27114;DHT22;14648;49.730;8.614;2023-07-09T10:23:16;32.60;39.10
27114;DHT22;14648;49.730;8.614;2023-07-09T10:32:02;33.00;38.90
27114;DHT22;14648;49.730;8.614;2023-07-09T10:34:52;33.10;38.00
27114;DHT22;14648;49.730;8.614;2023-07-09T10:41:04;33.40;38.10
27114;DHT22;14648;49.730;8.614;2023-07-09T10:46:33;33.60;37.70
27114;DHT22;14648;49.730;8.614;2023-07-09T10:49:02;33.70;36.70
27114;DHT22;14648;49.730;8.614;2023-07-09T10:51:39;33.70;37.00
27114;DHT22;14648;49.730;8.614;2023-07-09T10:57:22;34.00;36.20
27114;DHT22;14648;49.730;8.614;2023-07-09T10:59:50;34.00;35.80
27114;DHT22;14648;49.730;8.614;2023-07-09T11:02:32;34.20;35.60
27114;DHT22;14648;49.730;8.614;2023-07-09T11:05:00;34.30;35.40
27114;DHT22;14648;49.730;8.614;2023-07-09T11:07:36;34.40;35.00
27114;DHT22;14648;49.730;8.614;2023-07-09T11:10:27;34.50;35.50
27114;DHT22;14648;49.730;8.614;2023-07-09T11:13:16;34.60;34.30
27114;DHT22;14648;49.730;8.614;2023-07-09T11:15:48;34.70;34.40
27114;DHT22;14648;49.730;8.614;2023-07-09T11:18:30;34.70;34.50
27114;DHT22;14648;49.730;8.614;2023-07-09T11:21:15;34.80;34.10
27114;DHT22;14648;49.730;8.614;2023-07-09T11:23:49;34.90;34.30
27114;DHT22;14648;49.730;8.614;2023-07-09T11:29:17;35.00;33.80
27114;DHT22;14648;49.730;8.614;2023-07-09T11:31:45;35.10;33.70
27114;DHT22;14648;49.730;8.614;2023-07-09T11:36:59;35.20;33.70
27114;DHT22;14648;49.730;8.614;2023-07-09T11:45:09;35.30;33.00
27114;DHT22;14648;49.730;8.614;2023-07-09T11:47:45;35.30;32.70
27114;DHT22;14648;49.730;8.614;2023-07-09T11:55:54;35.50;32.40
27114;DHT22;14648;49.730;8.614;2023-07-09T11:58:19;35.60;31.30
27114;DHT22;14648;49.730;8.614;2023-07-09T12:00:48;35.60;31.40
27114;DHT22;14648;49.730;8.614;2023-07-09T12:05:59;35.80;30.20
27114;DHT22;14648;49.730;8.614;2023-07-09T12:11:00;35.90;30.10
27114;DHT22;14648;49.730;8.614;2023-07-09T12:13:26;35.90;29.90
27114;DHT22;14648;49.730;8.614;2023-07-09T12:15:51;36.00;30.40
27114;DHT22;14648;49.730;8.614;2023-07-09T12:18:17;36.10;30.50
27114;DHT22;14648;49.730;8.614;2023-07-09T12:20:48;36.20;30.20
27114;DHT22;14648;49.730;8.614;2023-07-09T12:23:29;36.40;30.00
27114;DHT22;14648;49.730;8.614;2023-07-09T12:26:00;36.50;29.50
27114;DHT22;14648;49.730;8.614;2023-07-09T12:28:27;36.50;29.10
27114;DHT22;14648;49.730;8.614;2023-07-09T12:30:54;36.60;29.20
27114;DHT22;14648;49.730;8.614;2023-07-09T12:33:25;36.80;28.80
27114;DHT22;14648;49.730;8.614;2023-07-09T12:36:00;36.70;28.60
27114;DHT22;14648;49.730;8.614;2023-07-09T12:38:30;36.80;29.20
27114;DHT22;14648;49.730;8.614;2023-07-09T12:41:05;36.80;28.90
27114;DHT22;14648;49.730;8.614;2023-07-09T12:43:31;36.80;28.90
27114;DHT22;14648;49.730;8.614;2023-07-09T12:45:59;36.90;28.70
27114;DHT22;14648;49.730;8.614;2023-07-09T12:48:27;37.00;29.10
27114;DHT22;14648;49.730;8.614;2023-07-09T12:50:58;37.10;29.70
27114;DHT22;14648;49.730;8.614;2023-07-09T12:53:27;37.10;29.70
27114;DHT22;14648;49.730;8.614;2023-07-09T12:56:01;37.20;29.10
27114;DHT22;14648;49.730;8.614;2023-07-09T12:58:33;37.20;29.10
27114;DHT22;14648;49.730;8.614;2023-07-09T13:01:15;37.20;28.50
27114;DHT22;14648;49.730;8.614;2023-07-09T13:03:53;37.30;28.40
27114;DHT22;14648;49.730;8.614;2023-07-09T13:06:27;37.30;28.50
27114;DHT22;14648;49.730;8.614;2023-07-09T13:09:02;37.50;28.20
27114;DHT22;14648;49.730;8.614;2023-07-09T13:11:37;37.60;28.10
27114;DHT22;14648;49.730;8.614;2023-07-09T13:14:17;37.50;27.90
27114;DHT22;14648;49.730;8.614;2023-07-09T13:16:44;37.50;27.40
27114;DHT22;14648;49.730;8.614;2023-07-09T13:19:10;37.40;27.90
27114;DHT22;14648;49.730;8.614;2023-07-09T13:21:38;37.30;27.50
27114;DHT22;14648;49.730;8.614;2023-07-09T13:26:48;37.30;27.90
27114;DHT22;14648;49.730;8.614;2023-07-09T13:29:16;37.40;27.90
27114;DHT22;14648;49.730;8.614;2023-07-09T13:31:44;37.50;27.70
27114;DHT22;14648;49.730;8.614;2023-07-09T13:36:47;37.60;27.30
27114;DHT22;14648;49.730;8.614;2023-07-09T13:39:13;37.60;28.00
27114;DHT22;14648;49.730;8.614;2023-07-09T13:41:45;37.60;27.70
27114;DHT22;14648;49.730;8.614;2023-07-09T13:44:15;37.60;27.00
27114;DHT22;14648;49.730;8.614;2023-07-09T13:46:43;37.60;26.40
27114;DHT22;14648;49.730;8.614;2023-07-09T13:49:14;37.50;27.10
27114;DHT22;14648;49.730;8.614;2023-07-09T13:51:44;37.50;27.50
27114;DHT22;14648;49.730;8.614;2023-07-09T13:54:28;37.60;27.70
27114;DHT22;14648;49.730;8.614;2023-07-09T13:57:14;37.60;27.00
27114;DHT22;14648;49.730;8.614;2023-07-09T13:59:43;37.70;26.40
27114;DHT22;14648;49.730;8.614;2023-07-09T14:02:32;37.70;27.20
27114;DHT22;14648;49.730;8.614;2023-07-09T14:05:00;37.70;26.60
27114;DHT22;14648;49.730;8.614;2023-07-09T14:07:36;37.80;26.70
27114;DHT22;14648;49.730;8.614;2023-07-09T14:10:06;37.90;26.10
27114;DHT22;14648;49.730;8.614;2023-07-09T14:12:41;38.00;26.40
27114;DHT22;14648;49.730;8.614;2023-07-09T14:15:20;37.90;25.80
27114;DHT22;14648;49.730;8.614;2023-07-09T14:17:48;38.00;25.50
27114;DHT22;14648;49.730;8.614;2023-07-09T14:20:16;38.00;25.60
27114;DHT22;14648;49.730;8.614;2023-07-09T14:22:45;38.00;25.60
27114;DHT22;14648;49.730;8.614;2023-07-09T14:25:21;38.00;25.60
27114;DHT22;14648;49.730;8.614;2023-07-09T14:27:50;38.00;25.50
27114;DHT22;14648;49.730;8.614;2023-07-09T14:30:19;38.00;25.60
27114;DHT22;14648;49.730;8.614;2023-07-09T14:32:47;37.80;25.10
27114;DHT22;14648;49.730;8.614;2023-07-09T14:35:21;37.80;24.80
27114;DHT22;14648;49.730;8.614;2023-07-09T14:37:49;37.60;25.00
27114;DHT22;14648;49.730;8.614;2023-07-09T14:40:18;37.50;25.20
27114;DHT22;14648;49.730;8.614;2023-07-09T14:42:48;37.50;25.60
27114;DHT22;14648;49.730;8.614;2023-07-09T14:45:32;37.30;25.20
27114;DHT22;14648;49.730;8.614;2023-07-09T14:47:59;37.20;25.70
27114;DHT22;14648;49.730;8.614;2023-07-09T14:50:25;37.10;25.60
27114;DHT22;14648;49.730;8.614;2023-07-09T14:52:51;37.00;25.70
27114;DHT22;14648;49.730;8.614;2023-07-09T14:55:19;36.90;25.10
27114;DHT22;14648;49.730;8.614;2023-07-09T14:57:47;36.80;24.90
27114;DHT22;14648;49.730;8.614;2023-07-09T15:00:22;36.70;25.00
27114;DHT22;14648;49.730;8.614;2023-07-09T15:02:50;36.60;25.30
27114;DHT22;14648;49.730;8.614;2023-07-09T15:05:19;36.60;25.80
27114;DHT22;14648;49.730;8.614;2023-07-09T15:07:47;36.60;25.60
27114;DHT22;14648;49.730;8.614;2023-07-09T15:10:20;36.60;25.60
27114;DHT22;14648;49.730;8.614;2023-07-09T15:12:55;36.50;25.50
27114;DHT22;14648;49.730;8.614;2023-07-09T15:15:26;36.50;25.00
27114;DHT22;14648;49.730;8.614;2023-07-09T15:17:56;36.50;25.00
27114;DHT22;14648;49.730;8.614;2023-07-09T15:20:28;36.50;25.30
27114;DHT22;14648;49.730;8.614;2023-07-09T15:22:56;36.50;25.40
27114;DHT22;14648;49.730;8.614;2023-07-09T15:25:26;36.50;25.60
27114;DHT22;14648;49.730;8.614;2023-07-09T15:27:53;36.50;25.10
27114;DHT22;14648;49.730;8.614;2023-07-09T15:30:24;36.50;24.90
27114;DHT22;14648;49.730;8.614;2023-07-09T15:32:51;36.50;24.70
27114;DHT22;14648;49.730;8.614;2023-07-09T15:35:20;36.40;24.80
27114;DHT22;14648;49.730;8.614;2023-07-09T15:37:46;36.30;25.00
27114;DHT22;14648;49.730;8.614;2023-07-09T15:40:21;36.30;24.40
27114;DHT22;14648;49.730;8.614;2023-07-09T15:42:54;36.20;24.20
27114;DHT22;14648;49.730;8.614;2023-07-09T15:45:23;36.10;24.40
27114;DHT22;14648;49.730;8.614;2023-07-09T15:47:50;36.10;24.40
27114;DHT22;14648;49.730;8.614;2023-07-09T15:50:23;36.00;24.60
27114;DHT22;14648;49.730;8.614;2023-07-09T15:52:51;35.90;24.30
27114;DHT22;14648;49.730;8.614;2023-07-09T15:55:26;35.80;24.20
27114;DHT22;14648;49.730;8.614;2023-07-09T15:57:54;35.70;24.10
27114;DHT22;14648;49.730;8.614;2023-07-09T16:00:26;35.70;24.60
27114;DHT22;14648;49.730;8.614;2023-07-09T16:02:53;35.50;24.40
27114;DHT22;14648;49.730;8.614;2023-07-09T16:05:27;35.50;24.70
27114;DHT22;14648;49.730;8.614;2023-07-09T16:07:56;35.40;24.80
27114;DHT22;14648;49.730;8.614;2023-07-09T16:10:25;35.40;25.30
27114;DHT22;14648;49.730;8.614;2023-07-09T16:12:51;35.30;26.00
27114;DHT22;14648;49.730;8.614;2023-07-09T16:15:20;35.20;26.20
27114;DHT22;14648;49.730;8.614;2023-07-09T16:17:48;35.10;26.80
27114;DHT22;14648;49.730;8.614;2023-07-09T16:20:18;35.10;27.00
27114;DHT22;14648;49.730;8.614;2023-07-09T16:22:49;35.10;27.20
27114;DHT22;14648;49.730;8.614;2023-07-09T16:25:21;35.00;26.90
27114;DHT22;14648;49.730;8.614;2023-07-09T16:27:49;35.00;27.70
27114;DHT22;14648;49.730;8.614;2023-07-09T16:30:20;34.90;27.30
27114;DHT22;14648;49.730;8.614;2023-07-09T16:32:48;34.80;27.00
27114;DHT22;14648;49.730;8.614;2023-07-09T16:35:19;34.70;27.10
27114;DHT22;14648;49.730;8.614;2023-07-09T16:37:47;34.70;26.40
27114;DHT22;14648;49.730;8.614;2023-07-09T16:40:21;34.60;26.50
27114;DHT22;14648;49.730;8.614;2023-07-09T16:42:52;34.60;26.30